Time;durP1;ratioP1;P1;durP2;ratioP2;P2;SDS_P1;SDS_P2;PMS_P1;PMS_P2;Temp;Humidity;BMP_temperature;BMP_pressure;BME280_temperature;BME280_humidity;BME280_pressure;Samples;Min_cycle;Max_cycle;Signal;HPM_P1;HPM_P2
2022/07/24 00:02:03;;;;;;;3.15;1.48;;;18.10;91.00;;;;;;5029905;28;20037;-78
2022/07/24 00:04:32;;;;;;;2.65;1.38;;;18.00;91.20;;;;;;5030653;28;20260;-76
2022/07/24 00:06:58;;;;;;;3.65;1.50;;;17.90;91.10;;;;;;5031275;28;20025;-78
2022/07/24 00:09:24;;;;;;;4.40;1.50;;;17.90;91.40;;;;;;5030934;28;20443;-78
2022/07/24 00:11:49;;;;;;;3.65;1.67;;;17.90;91.70;;;;;;5031160;28;20034;-77
2022/07/24 00:14:15;;;;;;;2.47;1.35;;;17.90;91.70;;;;;;5031022;28;20112;-77
2022/07/24 00:16:41;;;;;;;5.90;1.40;;;17.90;91.50;;;;;;5031614;28;20430;-77
2022/07/24 00:19:07;;;;;;;1.95;1.25;;;17.80;91.60;;;;;;5030089;28;20041;-78
2022/07/24 00:21:33;;;;;;;2.72;1.52;;;17.70;91.90;;;;;;5031255;28;20025;-77
2022/07/24 00:23:59;;;;;;;2.80;1.55;;;17.70;91.90;;;;;;5031098;28;20041;-76
2022/07/24 00:26:24;;;;;;;2.08;1.05;;;17.80;91.90;;;;;;5031003;28;20120;-77
2022/07/24 00:28:50;;;;;;;4.15;1.30;;;17.70;92.20;;;;;;5031146;28;20029;-77
2022/07/24 00:31:16;;;;;;;2.97;1.45;;;17.60;92.20;;;;;;5030860;28;20029;-77
2022/07/24 00:33:42;;;;;;;3.42;1.33;;;17.60;92.40;;;;;;5030829;28;20056;-77
2022/07/24 00:36:08;;;;;;;4.40;1.48;;;17.60;92.20;;;;;;5030534;28;20114;-78
2022/07/24 00:38:34;;;;;;;5.60;1.10;;;17.60;92.40;;;;;;5023506;28;20033;-77
2022/07/24 00:40:59;;;;;;;2.35;1.30;;;17.60;92.60;;;;;;5040864;28;20108;-77
2022/07/24 00:43:25;;;;;;;1.42;1.23;;;17.60;92.70;;;;;;5032091;28;20040;-77
2022/07/24 00:45:51;;;;;;;2.13;1.17;;;17.50;92.90;;;;;;5033065;28;20400;-77
2022/07/24 00:48:17;;;;;;;2.65;1.20;;;17.50;92.90;;;;;;5035034;28;20033;-77
2022/07/24 00:50:44;;;;;;;7.72;1.30;;;17.40;93.00;;;;;;5039192;28;20042;-76
2022/07/24 00:53:11;;;;;;;2.22;1.30;;;17.50;93.10;;;;;;5033371;28;20105;-77
2022/07/24 00:55:37;;;;;;;2.88;1.25;;;17.50;92.70;;;;;;5034753;28;20050;-77
2022/07/24 00:58:03;;;;;;;4.05;1.85;;;17.50;92.80;;;;;;5033518;28;20110;-77
2022/07/24 01:00:30;;;;;;;2.00;1.45;;;17.50;92.80;;;;;;5034040;28;20057;-77
2022/07/24 01:02:56;;;;;;;3.33;1.10;;;17.40;92.90;;;;;;5033985;28;20490;-76
2022/07/24 01:05:22;;;;;;;5.20;1.48;;;17.40;93.10;;;;;;5033742;28;20061;-77
2022/07/24 01:07:48;;;;;;;4.97;1.67;;;17.30;93.30;;;;;;5034518;28;20049;-76
2022/07/24 01:10:16;;;;;;;4.15;1.20;;;17.30;93.20;;;;;;5034169;28;20451;-76
2022/07/24 01:12:42;;;;;;;3.65;1.48;;;17.30;93.40;;;;;;5033123;28;20449;-78
2022/07/24 01:15:10;;;;;;;3.03;1.23;;;17.20;93.30;;;;;;5034156;28;20030;-78
2022/07/24 01:17:40;;;;;;;3.83;1.60;;;17.20;93.40;;;;;;5032000;28;20105;-78
2022/07/24 01:20:08;;;;;;;2.75;1.10;;;17.20;93.70;;;;;;5033794;28;20409;-76
2022/07/24 01:22:33;;;;;;;;;;;17.20;93.30;;;;;;5034889;28;20032;-76
2022/07/24 01:25:00;;;;;;;4.03;1.40;;;17.10;93.70;;;;;;5033897;28;19970;-78
2022/07/24 01:27:26;;;;;;;5.88;1.83;;;17.10;93.80;;;;;;5033977;28;20030;-77
2022/07/24 01:29:52;;;;;;;2.28;1.40;;;17.00;94.00;;;;;;5033827;28;20120;-77
2022/07/24 01:32:18;;;;;;;1.70;1.17;;;17.00;93.70;;;;;;5033151;28;20116;-77
2022/07/24 01:34:44;;;;;;;2.08;1.17;;;17.00;93.70;;;;;;5033953;28;20033;-77
2022/07/24 01:37:10;;;;;;;2.95;1.73;;;17.00;93.90;;;;;;5014300;28;20433;-76
2022/07/24 01:39:36;;;;;;;3.42;1.70;;;17.00;94.00;;;;;;5013339;28;20545;-77
2022/07/24 01:42:01;;;;;;;3.53;1.40;;;17.00;94.10;;;;;;5012419;28;20345;-77
2022/07/24 01:44:27;;;;;;;1.95;1.20;;;17.10;94.20;;;;;;5013336;28;20121;-76
2022/07/24 01:46:53;;;;;;;4.00;1.40;;;17.00;94.20;;;;;;5012882;28;20033;-78
2022/07/24 01:49:19;;;;;;;2.63;1.20;;;16.90;94.20;;;;;;5013347;28;20088;-76
2022/07/24 01:51:45;;;;;;;3.30;1.63;;;16.90;94.10;;;;;;5013669;28;20044;-76
2022/07/24 01:54:10;;;;;;;2.40;1.13;;;16.90;94.20;;;;;;5012744;28;20029;-77
2022/07/24 01:56:36;;;;;;;3.15;1.50;;;16.90;94.40;;;;;;5012085;28;20040;-77
2022/07/24 01:59:04;;;;;;;4.20;1.55;;;16.80;94.40;;;;;;5013096;28;20060;-76
2022/07/24 02:01:30;;;;;;;3.17;1.63;;;16.80;94.50;;;;;;5013829;28;20032;-77
2022/07/24 02:03:56;;;;;;;3.67;1.80;;;16.70;94.60;;;;;;5013386;28;20117;-77
2022/07/24 02:06:22;;;;;;;3.45;1.63;;;16.70;94.70;;;;;;5011972;28;20034;-77
2022/07/24 02:08:48;;;;;;;2.70;1.30;;;16.70;94.90;;;;;;5013129;28;20088;-76
2022/07/24 02:11:14;;;;;;;1.83;1.73;;;16.70;94.70;;;;;;5013080;28;20495;-77
2022/07/24 02:13:40;;;;;;;4.78;1.55;;;16.70;94.60;;;;;;5013448;28;20018;-77
2022/07/24 02:16:06;;;;;;;2.67;1.40;;;16.70;94.70;;;;;;5012966;28;20363;-77
2022/07/24 02:18:32;;;;;;;2.10;1.40;;;16.60;94.50;;;;;;5011846;28;20022;-77
2022/07/24 02:20:57;;;;;;;2.47;1.40;;;16.60;94.80;;;;;;5011659;28;20168;-77
2022/07/24 02:23:23;;;;;;;4.40;2.03;;;16.60;94.70;;;;;;5013261;28;20034;-76
2022/07/24 02:25:50;;;;;;;3.33;1.88;;;16.60;95.10;;;;;;5013414;28;20359;-78
2022/07/24 02:28:17;;;;;;;3.65;2.00;;;16.50;95.10;;;;;;5011780;28;20030;-78
2022/07/24 02:30:43;;;;;;;9.82;1.83;;;16.60;95.00;;;;;;5012626;28;20041;-77
2022/07/24 02:33:10;;;;;;;3.30;2.10;;;16.60;95.30;;;;;;5011586;28;20114;-77
2022/07/24 02:35:36;;;;;;;3.92;2.22;;;16.60;95.10;;;;;;5012857;28;20053;-77
2022/07/24 02:38:02;;;;;;;3.78;2.13;;;16.60;95.00;;;;;;5012556;28;20030;-77
2022/07/24 02:40:28;;;;;;;2.65;1.95;;;16.70;95.00;;;;;;5013036;28;20915;-76
2022/07/24 02:42:54;;;;;;;5.78;2.40;;;16.70;95.40;;;;;;5012609;28;20109;-77
2022/07/24 02:45:19;;;;;;;8.73;2.55;;;16.70;95.30;;;;;;5011173;28;20030;-77
2022/07/24 02:47:51;;;;;;;7.70;3.00;;;16.70;95.10;;;;;;5012548;28;20117;-76
2022/07/24 02:50:17;;;;;;;5.00;2.10;;;16.70;95.30;;;;;;5012421;28;20115;-77
2022/07/24 02:52:43;;;;;;;4.93;2.42;;;16.70;95.10;;;;;;5012890;28;20077;-77
2022/07/24 02:55:09;;;;;;;5.50;2.35;;;16.70;95.40;;;;;;5011246;28;20480;-77
2022/07/24 02:57:35;;;;;;;3.60;1.80;;;16.70;95.60;;;;;;5012308;28;20592;-78
2022/07/24 03:00:08;;;;;;;3.70;2.30;;;16.60;95.40;;;;;;5011043;28;20034;-76
2022/07/24 03:02:34;;;;;;;3.90;2.10;;;16.70;95.50;;;;;;5012473;28;20049;-77
2022/07/24 03:05:00;;;;;;;3.47;2.03;;;16.60;95.60;;;;;;5002659;28;20030;-77
2022/07/24 03:07:28;;;;;;;3.08;1.75;;;16.60;95.70;;;;;;5027326;28;20044;-77
2022/07/24 03:09:53;;;;;;;3.67;1.90;;;16.60;95.70;;;;;;5012133;28;20104;-77
2022/07/24 03:12:19;;;;;;;5.38;2.60;;;16.60;95.90;;;;;;5012286;28;20041;-78
2022/07/24 03:14:45;;;;;;;6.07;2.88;;;16.60;95.60;;;;;;5011978;28;20418;-77
2022/07/24 03:17:10;;;;;;;4.88;2.70;;;16.60;95.70;;;;;;5011990;28;20112;-78
2022/07/24 03:19:36;;;;;;;6.13;2.80;;;16.60;95.70;;;;;;5012419;28;20053;-78
2022/07/24 03:22:02;;;;;;;5.78;2.20;;;16.60;95.90;;;;;;5010776;28;20045;-76
2022/07/24 03:24:28;;;;;;;6.43;2.03;;;16.70;95.70;;;;;;5011995;28;20401;-76
2022/07/24 03:26:54;;;;;;;1.90;1.70;;;16.70;95.80;;;;;;5011723;28;20463;-77
2022/07/24 03:29:19;;;;;;;2.13;1.80;;;16.60;96.00;;;;;;5010668;28;20364;-78
2022/07/24 03:31:46;;;;;;;3.08;1.85;;;16.60;96.20;;;;;;5012457;28;20036;-77
2022/07/24 03:34:11;;;;;;;6.20;2.50;;;16.60;95.90;;;;;;5010607;28;20068;-77
2022/07/24 03:36:37;;;;;;;3.47;2.03;;;16.60;96.10;;;;;;5011793;28;20042;-77
2022/07/24 03:39:04;;;;;;;6.53;3.10;;;16.60;96.20;;;;;;5011704;28;20034;-77
2022/07/24 03:41:30;;;;;;;5.10;2.65;;;16.60;96.10;;;;;;5011645;28;20091;-78
2022/07/24 03:43:56;;;;;;;5.60;2.28;;;16.60;96.10;;;;;;5010582;28;20025;-76
2022/07/24 03:46:21;;;;;;;2.35;1.80;;;16.60;96.10;;;;;;5011221;28;20053;-77
2022/07/24 03:48:48;;;;;;;4.72;2.00;;;16.60;96.10;;;;;;5011666;28;20030;-77
2022/07/24 03:51:13;;;;;;;1.77;1.65;;;16.60;96.30;;;;;;5011968;28;20118;-76
2022/07/24 03:53:39;;;;;;;5.75;2.00;;;16.60;96.20;;;;;;5010787;28;20120;-77
2022/07/24 03:56:07;;;;;;;4.30;1.52;;;16.60;96.30;;;;;;5010412;28;20492;-77
2022/07/24 03:58:33;;;;;;;4.82;1.80;;;16.60;96.20;;;;;;5012461;28;20022;-78
2022/07/24 04:00:59;;;;;;;3.53;2.00;;;16.60;96.20;;;;;;5011671;28;20099;-78
2022/07/24 04:03:25;;;;;;;3.90;2.17;;;16.60;96.20;;;;;;5011666;28;20030;-78
2022/07/24 04:05:51;;;;;;;5.78;2.30;;;16.60;96.50;;;;;;5010616;28;20026;-78
2022/07/24 04:08:16;;;;;;;4.55;1.65;;;16.60;96.30;;;;;;5012137;28;20078;-78
2022/07/24 04:10:42;;;;;;;4.53;1.90;;;16.60;96.30;;;;;;5012136;28;20033;-77
2022/07/24 04:13:08;;;;;;;2.53;1.40;;;16.60;96.20;;;;;;5010664;28;20030;-76
2022/07/24 04:15:34;;;;;;;3.28;1.55;;;16.60;96.40;;;;;;5011485;28;20192;-76
2022/07/24 04:18:00;;;;;;;4.15;2.15;;;16.60;96.20;;;;;;5012408;28;20113;-76
2022/07/24 04:20:26;;;;;;;3.28;1.95;;;16.60;96.30;;;;;;5015231;28;20037;-76
2022/07/24 04:22:51;;;;;;;3.88;1.70;;;16.60;96.30;;;;;;5015514;28;20026;-77
2022/07/24 04:25:17;;;;;;;5.03;1.65;;;16.60;96.20;;;;;;5014980;28;20030;-77
2022/07/24 04:27:47;;;;;;;3.08;1.92;;;16.70;96.30;;;;;;5015108;28;20045;-77
2022/07/24 04:30:13;;;;;;;6.32;1.80;;;16.60;96.30;;;;;;5015014;28;20038;-76
2022/07/24 04:32:39;;;;;;;5.07;1.50;;;16.60;96.30;;;;;;5014996;28;20045;-77
2022/07/24 04:35:06;;;;;;;2.70;1.63;;;16.70;96.30;;;;;;5015543;28;20034;-76
2022/07/24 04:37:32;;;;;;;3.97;1.80;;;16.70;96.10;;;;;;5015456;28;20013;-76
2022/07/24 04:39:58;;;;;;;5.07;2.28;;;16.80;96.30;;;;;;5013951;28;20512;-76
2022/07/24 04:42:24;;;;;;;2.00;1.50;;;16.70;96.40;;;;;;5014213;28;20060;-78
2022/07/24 04:44:50;;;;;;;3.25;1.63;;;16.80;96.30;;;;;;5014784;28;20053;-77
2022/07/24 04:47:15;;;;;;;2.75;1.60;;;16.80;96.30;;;;;;5014704;28;20384;-77
2022/07/24 04:49:42;;;;;;;2.55;1.55;;;16.80;96.20;;;;;;5014436;28;20026;-78
2022/07/24 04:52:07;;;;;;;3.88;1.60;;;16.80;96.30;;;;;;5014631;28;20038;-77
2022/07/24 04:54:33;;;;;;;4.20;1.55;;;16.80;96.30;;;;;;5014541;28;20030;-77
2022/07/24 04:56:59;;;;;;;2.75;1.60;;;16.90;96.20;;;;;;5013487;28;20426;-76
2022/07/24 04:59:24;;;;;;;2.08;1.20;;;16.90;96.20;;;;;;5014457;28;20030;-77
2022/07/24 05:01:50;;;;;;;4.85;1.58;;;17.00;96.20;;;;;;5014822;28;20444;-77
2022/07/24 05:04:16;;;;;;;4.93;1.40;;;17.00;96.30;;;;;;5014608;28;20077;-77
2022/07/24 05:06:42;;;;;;;2.92;1.65;;;17.00;96.30;;;;;;5014626;28;20556;-77
2022/07/24 05:09:07;;;;;;;2.75;1.25;;;17.10;96.20;;;;;;5014332;28;20046;-76
2022/07/24 05:11:33;;;;;;;7.47;1.58;;;17.10;96.20;;;;;;5014013;28;20026;-77
2022/07/24 05:13:59;;;;;;;2.28;1.45;;;17.10;96.10;;;;;;5014548;28;20061;-77
2022/07/24 05:16:24;;;;;;;3.10;1.30;;;17.10;96.10;;;;;;5014590;28;20014;-78
2022/07/24 05:18:50;;;;;;;4.00;1.45;;;17.20;96.10;;;;;;5014279;28;20026;-76
2022/07/24 05:21:16;;;;;;;2.40;1.40;;;17.30;95.90;;;;;;5014076;28;20064;-76
2022/07/24 05:23:43;;;;;;;2.50;1.35;;;17.30;95.90;;;;;;5014338;28;20341;-77
2022/07/24 05:26:09;;;;;;;3.20;1.07;;;17.40;95.80;;;;;;5014326;28;20073;-77
2022/07/24 05:28:34;;;;;;;1.98;1.27;;;17.50;95.60;;;;;;5014636;28;20054;-77
2022/07/24 05:31:00;;;;;;;4.20;1.30;;;17.50;95.70;;;;;;5012901;28;20033;-76
2022/07/24 05:33:26;;;;;;;1.33;1.23;;;17.60;95.70;;;;;;5013664;28;20025;-77
2022/07/24 05:35:52;;;;;;;3.08;1.38;;;17.60;95.60;;;;;;5013803;28;20048;-77
2022/07/24 05:38:17;;;;;;;2.10;1.30;;;17.60;95.50;;;;;;5012671;28;20068;-77
2022/07/24 05:40:43;;;;;;;6.93;1.35;;;17.70;95.50;;;;;;5012959;28;20104;-77
2022/07/24 05:43:09;;;;;;;2.70;1.10;;;17.80;95.40;;;;;;5013635;28;20036;-77
2022/07/24 05:45:34;;;;;;;2.72;1.23;;;17.80;95.40;;;;;;5013859;28;20065;-77
2022/07/24 05:48:00;;;;;;;5.45;1.40;;;17.80;95.40;;;;;;5013373;28;20375;-76
2022/07/24 05:50:26;;;;;;;2.35;1.30;;;17.90;95.30;;;;;;5013441;28;20132;-77
2022/07/24 05:52:51;;;;;;;5.63;1.10;;;17.90;95.30;;;;;;5013171;28;20416;-76
2022/07/24 05:55:17;;;;;;;4.70;1.25;;;18.00;95.30;;;;;;5013450;28;20053;-79
2022/07/24 05:57:46;;;;;;;2.55;1.30;;;18.00;95.20;;;;;;5012908;28;20436;-78
2022/07/24 06:00:14;;;;;;;6.75;1.45;;;18.10;95.10;;;;;;5012774;28;20038;-77
2022/07/24 06:02:40;;;;;;;2.47;1.35;;;18.20;95.00;;;;;;5013024;28;20065;-80
2022/07/24 06:05:06;;;;;;;1.63;1.15;;;18.20;95.00;;;;;;5012895;28;20022;-78
2022/07/24 06:07:32;;;;;;;1.20;1.10;;;18.30;95.00;;;;;;5013560;28;20026;-79
2022/07/24 06:09:57;;;;;;;1.90;0.90;;;18.50;94.80;;;;;;5011634;28;20480;-77
2022/07/24 06:12:23;;;;;;;4.97;0.90;;;18.70;94.70;;;;;;5012753;28;20161;-75
2022/07/24 06:14:49;;;;;;;3.70;2.50;;;18.80;94.60;;;;;;5011576;28;20044;-77
2022/07/24 06:17:14;;;;;;;4.68;2.92;;;18.90;94.30;;;;;;5012795;28;20066;-78
2022/07/24 06:19:40;;;;;;;4.95;2.25;;;18.90;94.10;;;;;;5013147;28;20352;-77
2022/07/24 06:22:06;;;;;;;4.80;1.27;;;18.90;94.10;;;;;;5013149;28;20038;-76
2022/07/24 06:24:31;;;;;;;2.80;1.25;;;19.00;94.10;;;;;;5012790;28;20157;-78
2022/07/24 06:26:57;;;;;;;5.68;1.35;;;19.00;94.10;;;;;;5012868;28;20045;-75
2022/07/24 06:29:23;;;;;;;11.13;4.45;;;19.10;94.00;;;;;;5012610;28;20030;-76
2022/07/24 06:31:48;;;;;;;8.82;5.10;;;19.10;94.00;;;;;;5013075;28;20045;-81
2022/07/24 06:34:14;;;;;;;4.85;2.63;;;19.20;93.90;;;;;;5012643;28;20423;-79
2022/07/24 06:36:40;;;;;;;131.68;62.53;;;19.30;93.90;;;;;;5012070;28;20030;-76
2022/07/24 06:39:05;;;;;;;85.40;46.42;;;19.40;94.00;;;;;;5012836;28;20058;-80
2022/07/24 06:41:31;;;;;;;20.58;11.57;;;19.50;93.90;;;;;;5011754;28;20033;-78
2022/07/24 06:43:59;;;;;;;3.25;1.20;;;19.60;93.70;;;;;;5011354;28;20359;-75
2022/07/24 06:46:25;;;;;;;2.38;1.20;;;19.60;93.50;;;;;;5013252;28;20022;-82
2022/07/24 06:48:51;;;;;;;36.92;19.65;;;19.80;93.50;;;;;;5012321;28;20367;-76
2022/07/24 06:51:17;;;;;;;159.65;94.55;;;19.80;93.40;;;;;;5012325;28;20030;-76
2022/07/24 06:53:45;;;;;;;13.63;6.57;;;19.90;93.30;;;;;;5012159;28;20030;-72
2022/07/24 06:56:10;;;;;;;5.10;1.30;;;19.90;93.20;;;;;;5012247;28;20061;-73
2022/07/24 06:58:36;;;;;;;4.25;1.40;;;20.00;93.10;;;;;;5012546;28;20057;-77
2022/07/24 07:01:05;;;;;;;2.55;0.98;;;20.10;93.10;;;;;;5012147;28;20460;-76
2022/07/24 07:03:30;;;;;;;90.40;47.30;;;20.10;93.00;;;;;;5012057;28;20080;-76
2022/07/24 07:05:56;;;;;;;72.78;43.38;;;20.30;93.00;;;;;;5011171;28;20030;-78
2022/07/24 07:08:21;;;;;;;13.95;8.15;;;20.50;93.00;;;;;;5011974;28;20121;-78
2022/07/24 07:10:47;;;;;;;4.82;2.72;;;20.70;92.70;;;;;;5011578;28;20036;-77
2022/07/24 07:13:13;;;;;;;3.55;1.50;;;20.80;92.60;;;;;;5012091;28;20038;-78
2022/07/24 07:15:38;;;;;;;4.40;1.05;;;20.90;92.30;;;;;;5011903;28;20476;-75
2022/07/24 07:18:04;;;;;;;2.72;1.15;;;21.00;92.30;;;;;;5011825;28;20046;-75
2022/07/24 07:20:30;;;;;;;3.95;1.10;;;21.00;92.30;;;;;;5011672;28;20464;-76
2022/07/24 07:22:56;;;;;;;3.65;1.20;;;21.10;92.20;;;;;;5011901;28;20041;-75
2022/07/24 07:25:21;;;;;;;7.90;1.92;;;21.10;92.00;;;;;;5011891;28;20037;-75
2022/07/24 07:27:47;;;;;;;3.30;1.27;;;21.20;92.00;;;;;;5011882;28;20356;-75
2022/07/24 07:30:13;;;;;;;3.20;1.20;;;21.20;92.10;;;;;;5011763;28;20038;-75
2022/07/24 07:32:39;;;;;;;2.72;1.90;;;21.30;91.90;;;;;;5011644;28;20034;-77
2022/07/24 07:35:06;;;;;;;2.75;1.02;;;21.40;91.80;;;;;;5010580;28;20087;-77
2022/07/24 07:37:32;;;;;;;4.78;1.20;;;21.60;91.80;;;;;;5011135;28;20475;-79
2022/07/24 07:39:58;;;;;;;2.47;1.00;;;21.70;92.00;;;;;;5010485;28;20033;-82
2022/07/24 07:42:24;;;;;;;1.30;0.82;;;21.70;91.50;;;;;;5011921;28;20034;-80
2022/07/24 07:44:50;;;;;;;1.33;1.20;;;21.70;91.70;;;;;;5011848;28;20038;-80
2022/07/24 07:47:15;;;;;;;4.07;2.92;;;21.80;91.40;;;;;;5011404;28;20049;-83
2022/07/24 07:49:42;;;;;;;5.28;3.17;;;21.90;91.30;;;;;;5011746;28;20097;-79
2022/07/24 07:52:07;;;;;;;8.95;1.52;;;22.00;91.00;;;;;;5011106;28;20126;-82
2022/07/24 07:54:33;;;;;;;3.42;1.30;;;22.10;91.10;;;;;;5014583;28;20124;-82
2022/07/24 07:56:59;;;;;;;3.00;1.20;;;22.30;91.00;;;;;;5015725;28;20038;-79
2022/07/24 07:59:24;;;;;;;3.60;1.13;;;22.40;91.00;;;;;;5015697;28;20091;-85
2022/07/24 08:01:50;;;;;;;83.82;62.40;;;22.50;90.60;;;;;;5016957;28;20463;-79
2022/07/24 08:04:16;;;;;;;52.30;27.30;;;22.70;90.30;;;;;;5012976;28;20030;-74
2022/07/24 08:06:42;;;;;;;12.68;7.53;;;22.80;90.50;;;;;;5015574;28;20034;-74
2022/07/24 08:09:07;;;;;;;5.07;1.92;;;22.90;90.20;;;;;;5015812;28;20503;-75
2022/07/24 08:11:33;;;;;;;4.00;1.80;;;23.10;90.00;;;;;;5014362;28;20456;-75
2022/07/24 08:13:59;;;;;;;1.38;1.20;;;23.20;89.80;;;;;;5015802;28;20033;-77
2022/07/24 08:16:25;;;;;;;1.58;1.17;;;23.40;89.70;;;;;;5015795;28;20026;-75
2022/07/24 08:18:51;;;;;;;2.40;1.65;;;23.70;89.30;;;;;;5015139;28;20109;-76
2022/07/24 08:21:18;;;;;;;3.55;1.60;;;24.30;87.50;;;;;;5015400;28;20131;-75
2022/07/24 08:23:44;;;;;;;1.60;1.40;;;25.00;86.70;;;;;;5015493;28;20428;-76
2022/07/24 08:26:11;;;;;;;4.18;1.33;;;25.80;83.00;;;;;;5015306;28;20026;-75
2022/07/24 08:28:37;;;;;;;7.20;4.43;;;26.40;81.60;;;;;;5015763;28;20071;-79
2022/07/24 08:31:06;;;;;;;2.63;1.95;;;27.10;79.90;;;;;;5015302;28;20034;-79
2022/07/24 08:33:32;;;;;;;2.85;1.60;;;27.70;77.30;;;;;;5015184;28;20030;-78
2022/07/24 08:35:57;;;;;;;2.28;1.70;;;28.20;75.30;;;;;;5015398;28;20045;-82
2022/07/24 08:38:23;;;;;;;3.53;1.42;;;28.90;75.30;;;;;;5014295;28;20060;-82
2022/07/24 08:40:50;;;;;;;2.13;1.30;;;29.90;72.00;;;;;;5015773;28;20076;-79
2022/07/24 08:43:16;;;;;;;1.75;1.50;;;30.90;68.80;;;;;;5014665;28;20030;-79
2022/07/24 08:45:44;;;;;;;5.90;3.53;;;31.50;64.40;;;;;;5014207;28;20063;-79
2022/07/24 08:48:10;;;;;;;3.00;1.48;;;32.30;63.00;;;;;;5015370;28;20034;-78
2022/07/24 08:50:41;;;;;;;2.45;1.33;;;32.90;62.10;;;;;;5015318;28;20038;-80
2022/07/24 08:53:07;;;;;;;2.55;1.50;;;33.40;58.20;;;;;;5016254;28;20460;-80
2022/07/24 08:55:33;;;;;;;2.38;1.40;;;33.90;59.50;;;;;;5015207;28;20056;-78
2022/07/24 08:58:00;;;;;;;2.85;1.70;;;34.50;57.70;;;;;;5015084;28;20038;-80
2022/07/24 09:00:28;;;;;;;2.80;1.90;;;35.00;55.00;;;;;;5013437;28;20049;-81
2022/07/24 09:02:56;;;;;;;1.75;1.65;;;34.70;53.10;;;;;;5013106;28;20042;-85
2022/07/24 09:05:22;;;;;;;2.08;1.30;;;35.20;53.20;;;;;;5013697;28;20096;-79
2022/07/24 09:07:47;;;;;;;3.17;1.25;;;35.80;52.30;;;;;;5013469;28;20034;-81
2022/07/24 09:10:16;;;;;;;6.38;3.65;;;36.10;51.80;;;;;;5014335;28;20405;-80
2022/07/24 09:12:45;;;;;;;3.15;1.75;;;36.80;50.60;;;;;;5013878;28;20048;-75
2022/07/24 09:15:16;;;;;;;3.13;1.70;;;37.00;50.40;;;;;;5013873;28;20026;-77
2022/07/24 09:17:52;;;;;;;1.98;1.30;;;37.20;48.60;;;;;;5015018;28;20026;-86
2022/07/24 09:20:19;;;;;;;3.25;1.92;;;37.30;47.80;;;;;;5015036;28;20038;-88
2022/07/24 09:22:45;;;;;;;5.13;2.30;;;37.10;48.90;;;;;;5015159;28;20057;-79
2022/07/24 09:25:28;;;;;;;2.08;1.88;;;37.30;47.60;;;;;;5012576;28;20037;-78
2022/07/24 09:27:55;;;;;;;3.08;1.90;;;37.10;46.40;;;;;;5013614;28;20034;-81
2022/07/24 09:30:31;;;;;;;5.35;2.00;;;37.00;46.10;;;;;;5013833;28;20037;-77
2022/07/24 09:32:58;;;;;;;1.88;1.75;;;37.10;43.70;;;;;;5012662;28;20038;-75
2022/07/24 09:35:37;;;;;;;2.72;2.00;;;36.90;45.20;;;;;;5013909;28;20042;-77
2022/07/24 09:38:05;;;;;;;3.95;2.00;;;36.70;41.80;;;;;;5013532;28;20021;-76
2022/07/24 09:40:33;;;;;;;11.13;7.32;;;36.50;46.00;;;;;;5014139;28;20033;-73
2022/07/24 09:43:22;;;;;;;15.60;10.95;;;37.10;44.00;;;;;;5013432;28;20092;-71
2022/07/24 09:46:08;;;;;;;41.08;26.80;;;37.00;42.90;;;;;;5013481;28;20121;-71
2022/07/24 09:48:56;;;;;;;5.97;2.80;;;36.60;43.70;;;;;;5013200;28;20542;-69
2022/07/24 09:51:22;;;;;;;4.05;2.53;;;36.50;44.50;;;;;;5013117;28;20510;-75
2022/07/24 09:53:59;;;;;;;4.15;2.33;;;36.40;43.00;;;;;;5013001;28;20034;-72
2022/07/24 09:56:26;;;;;;;7.68;3.28;;;36.00;42.10;;;;;;5011439;28;20038;-70
2022/07/24 09:59:02;;;;;;;3.88;2.70;;;35.30;42.30;;;;;;5013472;28;20029;-74
2022/07/24 10:01:28;;;;;;;4.43;2.80;;;34.40;43.90;;;;;;5013264;28;20041;-69
2022/07/24 10:03:56;;;;;;;7.43;2.67;;;34.20;45.20;;;;;;5012815;28;20030;-69
2022/07/24 10:06:26;;;;;;;5.93;2.90;;;33.80;44.60;;;;;;5013046;28;20041;-69
2022/07/24 10:08:53;;;;;;;5.65;3.00;;;33.20;45.50;;;;;;5012901;28;20404;-69
2022/07/24 10:11:20;;;;;;;6.60;2.83;;;33.20;46.10;;;;;;5011622;28;20053;-69
2022/07/24 10:13:46;;;;;;;3.58;2.92;;;32.60;46.50;;;;;;5013341;28;20026;-70
2022/07/24 10:16:12;;;;;;;160.50;121.45;;;31.60;47.50;;;;;;5011980;28;20034;-71
2022/07/24 10:18:46;;;;;;;71.78;49.38;;;31.40;48.80;;;;;;5012776;28;20044;-69
2022/07/24 10:21:20;;;;;;;21.98;14.68;;;31.40;48.90;;;;;;5012506;28;20052;-71
2022/07/24 10:24:04;;;;;;;3.47;2.97;;;31.60;48.90;;;;;;5012590;28;20060;-72
2022/07/24 10:26:41;;;;;;;3.25;2.90;;;30.90;48.70;;;;;;5012781;28;20030;-70
2022/07/24 10:29:14;;;;;;;4.65;2.92;;;31.30;49.10;;;;;;5012335;28;20469;-70
2022/07/24 10:31:45;;;;;;;5.88;3.13;;;31.30;49.00;;;;;;5013019;28;20025;-71
2022/07/24 10:34:49;;;;;;;4.95;3.20;;;31.30;49.40;;;;;;5011126;28;20046;-71
2022/07/24 10:37:36;;;;;;;3.00;2.70;;;31.00;48.90;;;;;;5018999;28;20062;-71
2022/07/24 10:40:23;;;;;;;3.00;2.30;;;31.20;49.10;;;;;;5012428;28;20030;-72
2022/07/24 10:43:13;;;;;;;4.90;2.85;;;31.10;49.40;;;;;;5012306;28;20092;-72
2022/07/24 10:45:48;;;;;;;5.35;2.97;;;31.30;49.40;;;;;;5014139;28;20030;-72
2022/07/24 10:48:20;;;;;;;6.75;2.97;;;31.20;49.30;;;;;;5011891;28;20060;-72
2022/07/24 10:50:57;;;;;;;6.53;3.60;;;30.90;49.00;;;;;;5011927;28;20095;-73
2022/07/24 10:53:45;;;;;;;6.53;3.50;;;30.60;49.50;;;;;;5011330;28;20030;-73
2022/07/24 10:56:26;;;;;;;8.40;4.15;;;30.30;49.00;;;;;;5014375;28;20045;-72
2022/07/24 10:59:04;;;;;;;6.75;3.08;;;29.90;49.80;;;;;;5012290;28;20100;-71
2022/07/24 11:01:34;;;;;;;3.65;2.92;;;30.00;50.10;;;;;;5012008;28;20472;-72
2022/07/24 11:04:02;;;;;;;5.97;2.97;;;30.30;49.90;;;;;;5011946;28;20464;-72
2022/07/24 11:06:43;;;;;;;5.50;3.58;;;30.50;49.40;;;;;;5011503;28;20042;-72
2022/07/24 11:09:10;;;;;;;6.55;4.30;;;30.10;49.20;;;;;;5011501;28;20075;-73
2022/07/24 11:11:41;;;;;;;4.63;3.53;;;30.20;49.50;;;;;;5011744;28;20026;-72
2022/07/24 11:14:07;;;;;;;7.65;3.40;;;30.30;49.80;;;;;;5011615;28;20360;-71
2022/07/24 11:16:34;;;;;;;6.18;3.50;;;30.50;49.70;;;;;;5010940;28;20025;-72
2022/07/24 11:19:00;;;;;;;5.40;3.20;;;30.30;48.60;;;;;;5010535;28;20034;-72
2022/07/24 11:21:41;;;;;;;6.65;3.95;;;30.10;49.00;;;;;;5010465;28;20048;-72
2022/07/24 11:24:16;;;;;;;5.90;4.13;;;30.10;49.30;;;;;;5011524;28;20114;-72
2022/07/24 11:26:54;;;;;;;6.30;3.38;;;30.10;49.70;;;;;;5011182;28;20022;-71
2022/07/24 11:29:22;;;;;;;5.72;3.63;;;30.30;50.10;;;;;;5011474;28;20022;-72
2022/07/24 11:31:51;;;;;;;8.18;4.75;;;30.40;50.40;;;;;;5010667;28;20030;-71
2022/07/24 11:34:17;;;;;;;4.65;3.50;;;30.30;50.40;;;;;;5011415;28;20030;-72
2022/07/24 11:36:53;;;;;;;6.75;3.80;;;30.10;50.50;;;;;;5011252;28;20486;-71
2022/07/24 11:39:25;;;;;;;4.03;3.33;;;30.10;51.20;;;;;;5010217;28;20049;-71
2022/07/24 11:41:51;;;;;;;5.25;3.55;;;30.40;50.90;;;;;;5011411;28;20149;-72
2022/07/24 11:44:31;;;;;;;5.97;3.75;;;30.40;50.80;;;;;;5010123;28;20588;-71
2022/07/24 11:46:59;;;;;;;5.40;3.53;;;30.30;50.70;;;;;;5009894;28;20464;-72
2022/07/24 11:49:26;;;;;;;5.90;3.83;;;30.20;50.80;;;;;;5011727;28;20105;-70
2022/07/24 11:51:54;;;;;;;8.20;3.75;;;30.30;50.90;;;;;;5011492;28;20026;-72
2022/07/24 11:54:22;;;;;;;9.25;3.67;;;30.20;50.30;;;;;;5011583;28;20117;-71
2022/07/24 11:56:48;;;;;;;3.88;3.17;;;30.30;50.30;;;;;;5011080;28;20468;-72
2022/07/24 11:59:40;;;;;;;4.60;3.83;;;30.30;50.20;;;;;;5011333;28;20370;-71
2022/07/24 12:02:09;;;;;;;7.57;5.15;;;30.40;50.20;;;;;;5011678;28;20104;-72
2022/07/24 12:04:36;;;;;;;7.53;3.45;;;30.40;50.10;;;;;;5010546;28;20459;-71
2022/07/24 12:07:06;;;;;;;7.18;3.80;;;30.30;50.10;;;;;;5011069;28;20030;-72
2022/07/24 12:09:32;;;;;;;4.32;3.47;;;30.40;50.20;;;;;;5011179;28;20128;-70
2022/07/24 12:11:58;;;;;;;5.85;3.40;;;30.50;49.80;;;;;;5011107;28;20077;-71
2022/07/24 12:14:24;;;;;;;7.00;3.95;;;30.50;49.70;;;;;;5011009;28;20121;-70
2022/07/24 12:16:55;;;;;;;6.47;4.05;;;30.50;49.80;;;;;;5010179;28;20164;-71
2022/07/24 12:19:24;;;;;;;8.32;3.85;;;30.50;49.80;;;;;;5010884;28;20109;-72
2022/07/24 12:21:51;;;;;;;15.02;7.60;;;30.50;50.20;;;;;;5010841;28;20037;-71
2022/07/24 12:24:20;;;;;;;13.10;8.27;;;30.40;50.00;;;;;;5010909;28;20034;-71
2022/07/24 12:26:53;;;;;;;4.72;3.80;;;30.30;50.20;;;;;;5010753;28;20371;-71
2022/07/24 12:29:20;;;;;;;5.38;3.50;;;30.20;49.90;;;;;;5009672;28;20113;-71
2022/07/24 12:31:46;;;;;;;8.20;6.10;;;30.20;50.30;;;;;;5011249;28;20352;-71
2022/07/24 12:34:12;;;;;;;9.05;3.80;;;30.10;50.40;;;;;;5009888;28;20026;-72
2022/07/24 12:36:40;;;;;;;7.18;4.20;;;29.90;49.70;;;;;;5011154;28;20034;-71
2022/07/24 12:39:07;;;;;;;5.22;4.05;;;29.90;50.20;;;;;;5012007;28;20064;-71
2022/07/24 12:41:42;;;;;;;5.85;4.00;;;30.00;50.60;;;;;;5014643;28;20346;-70
2022/07/24 12:44:08;;;;;;;6.07;3.92;;;30.00;50.40;;;;;;5014579;28;20034;-71
2022/07/24 12:46:36;;;;;;;5.78;3.97;;;30.00;50.40;;;;;;5014827;28;20029;-71
2022/07/24 12:49:13;;;;;;;5.68;3.90;;;30.00;50.10;;;;;;5014398;28;20030;-71